Time;durP1;ratioP1;P1;durP2;ratioP2;P2;SDS_P1;SDS_P2;PMS_P1;PMS_P2;Temp;Humidity;BMP_temperature;BMP_pressure;BME280_temperature;BME280_humidity;BME280_pressure;Samples;Min_cycle;Max_cycle;Signal;HPM_P1;HPM_P2
2021/07/31 00:02:06;;;;;;;;;;;;;;;;;;2132747;59;14420;-72
2021/07/31 00:04:32;;;;;;;;;;;;;;;;;;2133695;59;19603;-73
2021/07/31 00:06:59;;;;;;;;;;;;;;;;;;2132227;67;14724;-71
2021/07/31 00:09:25;;;;;;;;;;;;;;;;;;2133222;63;16770;-70
2021/07/31 00:11:53;;;;;;;;;;;;;;;;;;2132407;59;15966;-71
2021/07/31 00:14:20;;;;;;;;;;;;;;;;;;2132075;59;14482;-71
2021/07/31 00:16:46;;;;;;;;;;;;;;;;;;2133284;67;14327;-71
2021/07/31 00:19:13;;;;;;;;;;;;;;;;;;2133617;59;13425;-71
2021/07/31 00:21:39;;;;;;;;;;;;;;;;;;2132790;67;14689;-71
2021/07/31 00:24:06;;;;;;;;;;;;;;;;;;2133523;59;14693;-71
2021/07/31 00:26:32;;;;;;;;;;;;;;;;;;2133303;59;13293;-73
2021/07/31 00:29:01;;;;;;;;;;;;;;;;;;2133310;64;13681;-71
2021/07/31 00:31:27;;;;;;;;;;;;;;;;;;2133358;59;14377;-71
2021/07/31 00:33:54;;;;;;;;;;;;;;;;;;2132659;64;14301;-70
2021/07/31 00:36:20;;;;;;;;;;;;;;;;;;2133945;67;13341;-71
2021/07/31 00:38:47;;;;;;;;;;;;;;;;;;2132366;59;18250;-72
2021/07/31 00:41:13;;;;;;;;;;;;;;;;;;2140053;53;14675;-74
2021/07/31 00:43:40;;;;;;;;;;;;;;;;;;2135923;59;23989;-73
2021/07/31 00:46:08;;;;;;;;;;;;;;;;;;2135869;59;15527;-72
2021/07/31 00:48:34;;;;;;;;;;;;;;;;;;2137483;67;14387;-77
2021/07/31 00:51:01;;;;;;;;;;;;;;;;;;2135179;59;16381;-71
2021/07/31 00:53:28;;;;;;;;;;;;;;;;;;2132277;59;15624;-74
2021/07/31 00:55:56;;;;;;;;;;;;;;;;;;2133688;59;21378;-74
2021/07/31 00:58:24;;;;;;;;;;;;;;;;;;2133581;59;15808;-72
2021/07/31 01:00:50;;;;;;;;;;;;;;;;;;2132523;59;19660;-73
2021/07/31 01:03:18;;;;;;;;;;;;;;;;;;2133446;66;13486;-72
2021/07/31 01:05:45;;;;;;;;;;;;;;;;;;2132110;59;16340;-73
2021/07/31 01:08:11;;;;;;;;;;;;;;;;;;2132673;67;18588;-72
2021/07/31 01:10:38;;;;;;;;;;;;;;;;;;2133275;67;18806;-75
2021/07/31 01:13:06;;;;;;;;;;;;;;;;;;2132857;59;14027;-74
2021/07/31 01:15:32;;;;;;;;;;;;;;;;;;2130915;60;13691;-75
2021/07/31 01:17:59;;;;;;;;;;;;;;;;;;2131706;67;15620;-74
2021/07/31 01:20:27;;;;;;;;;;;;;;;;;;2132557;59;15094;-74
2021/07/31 01:22:55;;;;;;;;;;;;;;;;;;2131500;59;17360;-74
2021/07/31 01:25:21;;;;;;;;;;;;;;;;;;2130671;67;14627;-72
2021/07/31 01:27:48;;;;;;;;;;;;;;;;;;2130912;59;15994;-71
2021/07/31 01:30:15;;;;;;;;;;;;;;;;;;2134418;67;13444;-71
2021/07/31 01:32:41;;;;;;;;;;;;;;;;;;2132811;59;13346;-75
2021/07/31 01:35:08;;;;;;;;;;;;;;;;;;2130630;59;17175;-74
2021/07/31 01:37:34;;;;;;;;;;;;;;;;;;2133219;59;17439;-73
2021/07/31 01:40:02;;;;;;;;;;;;;;;;;;2132088;67;13264;-73
2021/07/31 01:42:29;;;;;;;;;;;;;;;;;;2131158;59;15430;-75
2021/07/31 01:44:55;;;;;;;;;;;;;;;;;;2131532;67;15880;-74
2021/07/31 01:47:22;;;;;;;;;;;;;;;;;;2133123;67;14616;-75
2021/07/31 01:49:48;;;;;;;;;;;;;;;;;;2133344;59;16234;-73
2021/07/31 01:52:15;;;;;;;;;;;;;;;;;;2132620;59;18071;-72
2021/07/31 01:54:41;;;;;;;;;;;;;;;;;;2132678;67;16301;-73
2021/07/31 01:57:09;;;;;;;;;;;;;;;;;;2132162;67;16093;-75
2021/07/31 01:59:35;;;;;;;;;;;;;;;;;;2130422;59;19390;-71
2021/07/31 02:02:02;;;;;;;;;;;;;;;;;;2131861;59;14496;-74
2021/07/31 02:04:29;;;;;;;;;;;;;;;;;;2132023;67;16849;-77
2021/07/31 02:06:55;;;;;;;;;;;;;;;;;;2131209;59;14596;-72
2021/07/31 02:09:22;;;;;;;;;;;;;;;;;;2133622;67;15630;-73
2021/07/31 02:11:48;;;;;;;;;;;;;;;;;;2129789;59;14933;-73
2021/07/31 02:14:16;;;;;;;;;;;;;;;;;;2133513;59;15163;-75
2021/07/31 02:16:42;;;;;;;;;;;;;;;;;;2132029;59;14039;-75
2021/07/31 02:19:09;;;;;;;;;;;;;;;;;;2133686;67;13961;-73
2021/07/31 02:21:35;;;;;;;;;;;;;;;;;;2133996;67;16983;-76
2021/07/31 02:24:02;;;;;;;;;;;;;;;;;;2131855;59;15448;-71
2021/07/31 02:26:28;;;;;;;;;;;;;;;;;;2131751;67;14360;-72
2021/07/31 02:28:55;;;;;;;;;;;;;;;;;;2133953;59;19490;-74
2021/07/31 02:31:23;;;;;;;;;;;;;;;;;;2131810;59;17198;-75
2021/07/31 02:33:50;;;;;;;;;;;;;;;;;;2131715;59;20522;-74
2021/07/31 02:36:16;;;;;;;;;;;;;;;;;;2132381;67;34773;-72
2021/07/31 02:38:43;;;;;;;;;;;;;;;;;;2133473;59;21331;-72
2021/07/31 02:41:10;;;;;;;;;;;;;;;;;;2133152;67;16084;-74
2021/07/31 02:43:37;;;;;;;;;;;;;;;;;;2129558;59;15444;-75
2021/07/31 02:46:04;;;;;;;;;;;;;;;;;;2131299;67;22097;-71
2021/07/31 02:48:32;;;;;;;;;;;;;;;;;;2133364;59;15422;-76
2021/07/31 02:51:01;;;;;;;;;;;;;;;;;;2133116;67;17483;-76
2021/07/31 02:53:27;;;;;;;;;;;;;;;;;;2130634;59;14329;-71
2021/07/31 02:55:54;;;;;;;;;;;;;;;;;;2132599;63;18053;-73
2021/07/31 02:58:20;;;;;;;;;;;;;;;;;;2132542;64;13617;-75
2021/07/31 03:00:47;;;;;;;;;;;;;;;;;;2132504;59;18385;-72
2021/07/31 03:03:13;;;;;;;;;;;;;;;;;;2132579;67;18867;-72
2021/07/31 03:05:41;;;;;;;;;;;;;;;;;;2131411;59;26303;-74
2021/07/31 03:08:08;;;;;;;;;;;;;;;;;;2131328;67;17939;-73
2021/07/31 03:10:34;;;;;;;;;;;;;;;;;;2131919;64;13688;-77
2021/07/31 03:13:01;;;;;;;;;;;;;;;;;;2131658;59;13474;-72
2021/07/31 03:15:27;;;;;;;;;;;;;;;;;;2134167;59;14549;-75
2021/07/31 03:17:55;;;;;;;;;;;;;;;;;;2131020;59;16672;-73
2021/07/31 03:20:22;;;;;;;;;;;;;;;;;;2132775;59;16270;-73
2021/07/31 03:22:50;;;;;;;;;;;;;;;;;;2132455;67;16358;-71
2021/07/31 03:25:16;;;;;;;;;;;;;;;;;;2132645;59;14567;-72
2021/07/31 03:27:43;;;;;;;;;;;;;;;;;;2131092;59;16956;-72
2021/07/31 03:30:10;;;;;;;;;;;;;;;;;;2133496;59;13937;-73
2021/07/31 03:32:36;;;;;;;;;;;;;;;;;;2132884;59;15280;-78
2021/07/31 03:35:03;;;;;;;;;;;;;;;;;;2135107;59;20463;-73
2021/07/31 03:37:29;;;;;;;;;;;;;;;;;;2133895;67;17014;-75
2021/07/31 03:39:58;;;;;;;;;;;;;;;;;;2134323;59;17826;-73
2021/07/31 03:42:25;;;;;;;;;;;;;;;;;;2133531;59;14832;-72
2021/07/31 03:44:51;;;;;;;;;;;;;;;;;;2128934;67;19311;-73
2021/07/31 03:47:18;;;;;;;;;;;;;;;;;;2131954;67;14857;-76
2021/07/31 03:49:44;;;;;;;;;;;;;;;;;;2132477;67;15774;-76
2021/07/31 03:52:11;;;;;;;;;;;;;;;;;;2132900;59;14697;-72
2021/07/31 03:54:37;;;;;;;;;;;;;;;;;;2131135;59;14645;-77
2021/07/31 03:57:06;;;;;;;;;;;;;;;;;;2133813;67;13958;-76
2021/07/31 03:59:32;;;;;;;;;;;;;;;;;;2131791;67;13664;-74
2021/07/31 04:01:59;;;;;;;;;;;;;;;;;;2130005;59;15124;-75
2021/07/31 04:04:27;;;;;;;;;;;;;;;;;;2132887;59;17924;-73
2021/07/31 04:06:54;;;;;;;;;;;;;;;;;;2131040;67;16278;-71
2021/07/31 04:09:20;;;;;;;;;;;;;;;;;;2131834;59;14349;-73
2021/07/31 04:11:47;;;;;;;;;;;;;;;;;;2131857;59;16863;-73
2021/07/31 04:14:15;;;;;;;;;;;;;;;;;;2133338;67;17367;-74
2021/07/31 04:16:41;;;;;;;;;;;;;;;;;;2133532;59;15049;-74
2021/07/31 04:19:08;;;;;;;;;;;;;;;;;;2131578;60;13692;-72
2021/07/31 04:21:34;;;;;;;;;;;;;;;;;;2132685;67;22906;-73
2021/07/31 04:24:01;;;;;;;;;;;;;;;;;;2130715;59;17537;-74
2021/07/31 04:26:27;;;;;;;;;;;;;;;;;;2133434;64;18347;-75
2021/07/31 04:28:54;;;;;;;;;;;;;;;;;;2131503;67;14263;-75
2021/07/31 04:31:22;;;;;;;;;;;;;;;;;;2134479;67;15050;-72
2021/07/31 04:33:48;;;;;;;;;;;;;;;;;;2130039;59;16857;-73
2021/07/31 04:36:15;;;;;;;;;;;;;;;;;;2133534;67;15025;-72
2021/07/31 04:38:41;;;;;;;;;;;;;;;;;;2130815;67;15616;-74
2021/07/31 04:41:07;;;;;;;;;;;;;;;;;;2135674;59;18675;-73
2021/07/31 04:43:34;;;;;;;;;;;;;;;;;;2132119;63;15787;-76
2021/07/31 04:46:01;;;;;;;;;;;;;;;;;;2131226;59;14940;-72
2021/07/31 04:48:29;;;;;;;;;;;;;;;;;;2133511;60;13881;-72
2021/07/31 04:50:57;;;;;;;;;;;;;;;;;;2132541;59;18619;-74
2021/07/31 04:53:24;;;;;;;;;;;;;;;;;;2132159;67;13596;-73
2021/07/31 04:55:50;;;;;;;;;;;;;;;;;;2129815;60;20176;-73
2021/07/31 04:58:16;;;;;;;;;;;;;;;;;;2133059;67;15671;-75
2021/07/31 05:00:43;;;;;;;;;;;;;;;;;;2133267;59;16973;-74
2021/07/31 05:03:09;;;;;;;;;;;;;;;;;;2131523;67;16812;-72
2021/07/31 05:05:38;;;;;;;;;;;;;;;;;;2132896;59;15581;-70
2021/07/31 05:08:05;;;;;;;;;;;;;;;;;;2134879;67;18228;-72
2021/07/31 05:10:32;;;;;;;;;;;;;;;;;;2134209;67;15200;-74
2021/07/31 05:12:58;;;;;;;;;;;;;;;;;;2131806;67;15196;-73
2021/07/31 05:15:25;;;;;;;;;;;;;;;;;;2133172;59;14318;-74
2021/07/31 05:17:51;;;;;;;;;;;;;;;;;;2129998;59;22378;-75
2021/07/31 05:20:18;;;;;;;;;;;;;;;;;;2132582;67;15198;-73
2021/07/31 05:22:46;;;;;;;;;;;;;;;;;;2132362;67;17366;-71
2021/07/31 05:25:12;;;;;;;;;;;;;;;;;;2131780;59;20029;-73
2021/07/31 05:27:39;;;;;;;;;;;;;;;;;;2131361;59;15519;-75
2021/07/31 05:30:06;;;;;;;;;;;;;;;;;;2133700;67;15032;-74
2021/07/31 05:32:33;;;;;;;;;;;;;;;;;;2133457;67;15058;-75
2021/07/31 05:35:00;;;;;;;;;;;;;;;;;;2133990;67;17533;-75
2021/07/31 05:37:26;;;;;;;;;;;;;;;;;;2135593;67;15596;-76
2021/07/31 05:39:54;;;;;;;;;;;;;;;;;;2131471;67;15169;-72
2021/07/31 05:42:21;;;;;;;;;;;;;;;;;;2131193;59;13978;-74
2021/07/31 05:44:47;;;;;;;;;;;;;;;;;;2131943;59;16607;-72
2021/07/31 05:47:14;;;;;;;;;;;;;;;;;;2133758;67;13801;-73
2021/07/31 05:49:40;;;;;;;;;;;;;;;;;;2132145;59;15244;-76
2021/07/31 05:52:07;;;;;;;;;;;;;;;;;;2134343;59;17486;-73
2021/07/31 05:54:35;;;;;;;;;;;;;;;;;;2131329;67;18862;-75
2021/07/31 05:57:03;;;;;;;;;;;;;;;;;;2131597;60;18162;-73
2021/07/31 05:59:30;;;;;;;;;;;;;;;;;;2132643;59;14475;-73
2021/07/31 06:01:56;;;;;;;;;;;;;;;;;;2131668;59;19496;-73
2021/07/31 06:04:23;;;;;;;;;;;;;;;;;;2133895;59;13892;-75
2021/07/31 06:06:49;;;;;;;;;;;;;;;;;;2133720;59;14845;-74
2021/07/31 06:09:16;;;;;;;;;;;;;;;;;;2132595;59;13619;-72
2021/07/31 06:11:42;;;;;;;;;;;;;;;;;;2132761;64;16077;-73
2021/07/31 06:14:10;;;;;;;;;;;;;;;;;;2132427;59;14673;-74
2021/07/31 06:16:37;;;;;;;;;;;;;;;;;;2134079;59;28260;-76
2021/07/31 06:19:03;;;;;;;;;;;;;;;;;;2129999;67;17900;-74
2021/07/31 06:21:30;;;;;;;;;;;;;;;;;;2131217;64;15755;-75
2021/07/31 06:23:56;;;;;;;;;;;;;;;;;;2131175;59;17683;-73
2021/07/31 06:26:23;;;;;;;;;;;;;;;;;;2133831;67;16393;-72
2021/07/31 06:28:49;;;;;;;;;;;;;;;;;;2131970;59;15324;-75
2021/07/31 06:31:17;;;;;;;;;;;;;;;;;;2135474;67;18130;-73
2021/07/31 06:33:44;;;;;;;;;;;;;;;;;;2133533;59;16149;-73
2021/07/31 06:36:10;;;;;;;;;;;;;;;;;;2133151;59;15334;-74
2021/07/31 06:38:36;;;;;;;;;;;;;;;;;;2128624;59;14554;-75
2021/07/31 06:41:03;;;;;;;;;;;;;;;;;;2133378;59;17345;-70
2021/07/31 06:43:30;;;;;;;;;;;;;;;;;;2132641;59;14989;-72
2021/07/31 06:45:56;;;;;;;;;;;;;;;;;;2131808;59;16155;-72
2021/07/31 06:48:24;;;;;;;;;;;;;;;;;;2132450;67;15280;-71
2021/07/31 06:50:51;;;;;;;;;;;;;;;;;;2131397;59;16107;-72
2021/07/31 06:53:17;;;;;;;;;;;;;;;;;;2131826;67;13845;-72
2021/07/31 06:55:44;;;;;;;;;;;;;;;;;;2130192;59;17799;-71
2021/07/31 06:58:10;;;;;;;;;;;;;;;;;;2132023;59;17817;-71
2021/07/31 07:00:37;;;;;;;;;;;;;;;;;;2132390;67;13766;-69
2021/07/31 07:03:03;;;;;;;;;;;;;;;;;;2132344;59;16241;-71
2021/07/31 07:05:31;;;;;;;;;;;;;;;;;;2132361;59;15215;-72
2021/07/31 07:07:58;;;;;;;;;;;;;;;;;;2129013;59;25305;-71
2021/07/31 07:10:24;;;;;;;;;;;;;;;;;;2133046;59;14948;-71
2021/07/31 07:12:51;;;;;;;;;;;;;;;;;;2132401;59;13898;-70
2021/07/31 07:15:17;;;;;;;;;;;;;;;;;;2130845;59;15055;-73
2021/07/31 07:17:44;;;;;;;;;;;;;;;;;;2132389;59;16427;-71
2021/07/31 07:20:11;;;;;;;;;;;;;;;;;;2132117;59;19421;-72
2021/07/31 07:22:38;;;;;;;;;;;;;;;;;;2132079;59;14547;-68
2021/07/31 07:25:05;;;;;;;;;;;;;;;;;;2132047;59;17338;-72
2021/07/31 07:27:32;;;;;;;;;;;;;;;;;;2131829;59;12980;-71
2021/07/31 07:29:58;;;;;;;;;;;;;;;;;;2131710;59;19968;-72
2021/07/31 07:32:25;;;;;;;;;;;;;;;;;;2132352;59;15561;-71
2021/07/31 07:34:51;;;;;;;;;;;;;;;;;;2127779;59;15772;-70
2021/07/31 07:37:18;;;;;;;;;;;;;;;;;;2130706;64;18063;-72
2021/07/31 07:39:46;;;;;;;;;;;;;;;;;;2131452;59;16600;-69
2021/07/31 07:42:12;;;;;;;;;;;;;;;;;;2133873;59;23474;-71
2021/07/31 07:44:39;;;;;;;;;;;;;;;;;;2131605;64;16881;-70
2021/07/31 07:47:05;;;;;;;;;;;;;;;;;;2130099;59;13898;-72
2021/07/31 07:49:32;;;;;;;;;;;;;;;;;;2131851;59;14514;-70
2021/07/31 07:51:58;;;;;;;;;;;;;;;;;;2131574;59;15522;-71
2021/07/31 07:54:25;;;;;;;;;;;;;;;;;;2132797;59;14309;-73
2021/07/31 07:56:53;;;;;;;;;;;;;;;;;;2131204;59;15576;-71
2021/07/31 07:59:20;;;;;;;;;;;;;;;;;;2130175;59;15323;-70
2021/07/31 08:01:46;;;;;;;;;;;;;;;;;;2130845;59;18640;-70
2021/07/31 08:04:13;;;;;;;;;;;;;;;;;;2129317;59;17706;-70
2021/07/31 08:06:39;;;;;;;;;;;;;;;;;;2131035;63;15739;-71
2021/07/31 08:09:06;;;;;;;;;;;;;;;;;;2131776;67;13477;-74
2021/07/31 08:11:32;;;;;;;;;;;;;;;;;;2132532;59;15670;-73
2021/07/31 08:14:00;;;;;;;;;;;;;;;;;;2128294;59;17970;-72
2021/07/31 08:16:27;;;;;;;;;;;;;;;;;;2131985;67;15416;-70
2021/07/31 08:18:53;;;;;;;;;;;;;;;;;;2132336;59;14820;-73
2021/07/31 08:21:20;;;;;;;;;;;;;;;;;;2132228;59;20649;-72
2021/07/31 08:23:47;;;;;;;;;;;;;;;;;;2127548;59;18675;-72
2021/07/31 08:26:15;;;;;;;;;;;;;;;;;;2130636;59;14744;-71
2021/07/31 08:28:41;;;;;;;;;;;;;;;;;;2131114;67;15451;-72
2021/07/31 08:31:10;;;;;;;;;;;;;;;;;;2131802;64;16762;-72
2021/07/31 08:33:36;;;;;;;;;;;;;;;;;;2130214;67;15660;-72
2021/07/31 08:36:03;;;;;;;;;;;;;;;;;;2133449;59;14285;-73
2021/07/31 08:38:30;;;;;;;;;;;;;;;;;;2133573;59;17930;-71
2021/07/31 08:40:57;;;;;;;;;;;;;;;;;;2129874;59;15128;-73
2021/07/31 08:43:24;;;;;;;;;;;;;;;;;;2131153;59;16385;-70
2021/07/31 08:45:51;;;;;;;;;;;;;;;;;;2129554;64;16880;-72
2021/07/31 08:48:19;;;;;;;;;;;;;;;;;;2132810;67;18303;-73
2021/07/31 08:50:47;;;;;;;;;;;;;;;;;;2133075;67;14810;-72
2021/07/31 08:53:14;;;;;;;;;;;;;;;;;;2131446;59;14502;-73
2021/07/31 08:55:43;;;;;;;;;;;;;;;;;;2131004;59;19302;-70
2021/07/31 08:58:10;;;;;;;;;;;;;;;;;;2127943;59;16502;-73
2021/07/31 09:00:36;;;;;;;;;;;;;;;;;;2129407;59;14400;-73
2021/07/31 09:03:03;;;;;;;;;;;;;;;;;;2131276;59;16976;-71
2021/07/31 09:05:32;;;;;;;;;;;;;;;;;;2131186;59;15690;-73
2021/07/31 09:08:02;;;;;;;;;;;;;;;;;;2130957;59;16543;-73
2021/07/31 09:10:29;;;;;;;;;;;;;;;;;;2132237;67;16520;-71
2021/07/31 09:12:56;;;;;;;;;;;;;;;;;;2131895;67;16236;-72
2021/07/31 09:15:31;;;;;;;;;;;;;;;;;;2132486;67;16352;-70
2021/07/31 09:18:18;;;;;;;;;;;;;;;;;;2128177;59;23363;-71
2021/07/31 09:20:53;;;;;;;;;;;;;;;;;;2131724;59;17511;-72
2021/07/31 09:23:20;;;;;;;;;;;;;;;;;;2131236;59;14758;-72
2021/07/31 09:25:58;;;;;;;;;;;;;;;;;;2129095;59;17836;-71
2021/07/31 09:28:25;;;;;;;;;;;;;;;;;;2132442;59;16119;-71
2021/07/31 09:30:53;;;;;;;;;;;;;;;;;;2132277;59;14731;-72
2021/07/31 09:33:20;;;;;;;;;;;;;;;;;;2132132;67;13672;-71
2021/07/31 09:35:48;;;;;;;;;;;;;;;;;;2132483;59;17092;-72
2021/07/31 09:38:15;;;;;;;;;;;;;;;;;;2132169;59;13932;-72
2021/07/31 09:40:42;;;;;;;;;;;;;;;;;;2129841;59;14455;-71
2021/07/31 09:43:15;;;;;;;;;;;;;;;;;;2131972;59;15381;-72
2021/07/31 09:45:42;;;;;;;;;;;;;;;;;;2129937;59;15043;-73
2021/07/31 09:48:09;;;;;;;;;;;;;;;;;;2129110;59;13874;-71
2021/07/31 09:50:37;;;;;;;;;;;;;;;;;;2110020;59;16835;-72
2021/07/31 09:53:12;;;;;;;;;;;;;;;;;;1439610;59;10000976;-72
2021/07/31 09:55:46;;;;;;;;;;;;;;;;;;1171089;59;10001658;-73
2021/07/31 09:58:21;;;;;;;;;;;;;;;;;;1720811;59;10000552;-72
2021/07/31 10:00:49;;;;;;;;;;;;;;;;;;2121986;59;16322;-70
2021/07/31 10:03:15;;;;;;;;;;;;;;;;;;2125265;59;15519;-72
2021/07/31 10:05:43;;;;;;;;;;;;;;;;;;2124427;59;17660;-70
2021/07/31 10:08:12;;;;;;;;;;;;;;;;;;2126745;67;16446;-71
2021/07/31 10:10:39;;;;;;;;;;;;;;;;;;2125583;59;17571;-72
2021/07/31 10:13:05;;;;;;;;;;;;;;;;;;2125356;59;15968;-71
2021/07/31 10:15:32;;;;;;;;;;;;;;;;;;2126522;59;18125;-72
2021/07/31 10:17:59;;;;;;;;;;;;;;;;;;2124519;67;14740;-72
2021/07/31 10:20:26;;;;;;;;;;;;;;;;;;2126749;59;14583;-72
2021/07/31 10:22:52;;;;;;;;;;;;;;;;;;2125389;59;15943;-72
2021/07/31 10:25:21;;;;;;;;;;;;;;;;;;2125776;59;15337;-72
2021/07/31 10:27:48;;;;;;;;;;;;;;;;;;2126395;59;16068;-72
2021/07/31 10:30:33;;;;;;;;;;;;;;;;;;2126392;59;15038;-71
2021/07/31 10:33:00;;;;;;;;;;;;;;;;;;2125246;59;15553;-72
2021/07/31 10:35:27;;;;;;;;;;;;;;;;;;2124738;59;14984;-70
2021/07/31 10:37:54;;;;;;;;;;;;;;;;;;2125599;59;20677;-71
2021/07/31 10:40:54;;;;;;;;;;;;;;;;;;2126665;67;14596;-70
2021/07/31 10:43:23;;;;;;;;;;;;;;;;;;2126710;59;14730;-72
2021/07/31 10:45:50;;;;;;;;;;;;;;;;;;2124767;59;18973;-70
2021/07/31 10:48:35;;;;;;;;;;;;;;;;;;2127275;59;17683;-70
2021/07/31 10:51:02;;;;;;;;;;;;;;;;;;2123874;67;15285;-71
2021/07/31 10:53:51;;;;;;;;;;;;;;;;;;2124573;67;17631;-70
2021/07/31 10:56:17;;;;;;;;;;;;;;;;;;2123773;64;22789;-69
2021/07/31 10:58:59;;;;;;;;;;;;;;;;;;2124696;59;23337;-71
2021/07/31 11:01:27;;;;;;;;;;;;;;;;;;2121730;59;56915;-71
2021/07/31 11:03:53;;;;;;;;;;;;;;;;;;2124230;59;18817;-70
2021/07/31 11:06:20;;;;;;;;;;;;;;;;;;2125748;67;14485;-71
2021/07/31 11:09:01;;;;;;;;;;;;;;;;;;2126104;67;15725;-71
2021/07/31 11:11:29;;;;;;;;;;;;;;;;;;2124032;67;24581;-70
2021/07/31 11:13:56;;;;;;;;;;;;;;;;;;2124531;64;15621;-70
2021/07/31 11:16:24;;;;;;;;;;;;;;;;;;2126436;59;21071;-71
2021/07/31 11:18:54;;;;;;;;;;;;;;;;;;2129568;59;14444;-71
2021/07/31 11:21:22;;;;;;;;;;;;;;;;;;2126490;59;14140;-71
2021/07/31 11:23:49;;;;;;;;;;;;;;;;;;2125357;59;18844;-71
2021/07/31 11:26:32;;;;;;;;;;;;;;;;;;2126814;59;13513;-70
2021/07/31 11:28:59;;;;;;;;;;;;;;;;;;2126283;67;16194;-71
2021/07/31 11:31:26;;;;;;;;;;;;;;;;;;2126453;59;14874;-72
2021/07/31 11:34:02;;;;;;;;;;;;;;;;;;2124935;59;20244;-71
2021/07/31 11:36:28;;;;;;;;;;;;;;;;;;2126027;59;18205;-69
2021/07/31 11:38:55;;;;;;;;;;;;;;;;;;2126460;63;19469;-69
2021/07/31 11:41:22;;;;;;;;;;;;;;;;;;2126177;59;15166;-71
2021/07/31 11:43:50;;;;;;;;;;;;;;;;;;2126055;64;20087;-70
2021/07/31 11:46:26;;;;;;;;;;;;;;;;;;2125867;59;19997;-70
2021/07/31 11:48:53;;;;;;;;;;;;;;;;;;2126317;59;14072;-70
2021/07/31 11:51:21;;;;;;;;;;;;;;;;;;2126760;59;14171;-70
2021/07/31 11:53:49;;;;;;;;;;;;;;;;;;2126488;59;45739;-69
2021/07/31 11:56:16;;;;;;;;;;;;;;;;;;2126924;67;18355;-71
2021/07/31 11:58:43;;;;;;;;;;;;;;;;;;2127589;67;19496;-72
2021/07/31 12:01:09;;;;;;;;;;;;;;;;;;2126253;59;17312;-71
2021/07/31 12:03:39;;;;;;;;;;;;;;;;;;2125460;67;19226;-72
2021/07/31 12:06:06;;;;;;;;;;;;;;;;;;2126819;64;13899;-69
2021/07/31 12:08:46;;;;;;;;;;;;;;;;;;2127463;67;13815;-71
2021/07/31 12:11:12;;;;;;;;;;;;;;;;;;2126587;59;15311;-70
2021/07/31 12:13:39;;;;;;;;;;;;;;;;;;2125762;59;19900;-70
2021/07/31 12:16:06;;;;;;;;;;;;;;;;;;2126530;67;14681;-71
2021/07/31 12:18:47;;;;;;;;;;;;;;;;;;2126525;67;14902;-72
2021/07/31 12:21:23;;;;;;;;;;;;;;;;;;2126550;59;18295;-71
2021/07/31 12:23:51;;;;;;;;;;;;;;;;;;2125500;59;20118;-71
2021/07/31 12:26:27;;;;;;;;;;;;;;;;;;2126504;59;29345;-72
2021/07/31 12:28:56;;;;;;;;;;;;;;;;;;2126819;63;17530;-71
2021/07/31 12:31:23;;;;;;;;;;;;;;;;;;2125385;59;20717;-69
2021/07/31 12:33:50;;;;;;;;;;;;;;;;;;2125661;59;20203;-71
2021/07/31 12:36:16;;;;;;;;;;;;;;;;;;2126788;59;14694;-70
2021/07/31 12:38:43;;;;;;;;;;;;;;;;;;2126540;59;16180;-71
2021/07/31 12:41:11;;;;;;;;;;;;;;;;;;2126871;59;14945;-69
2021/07/31 12:43:37;;;;;;;;;;;;;;;;;;2127407;59;21556;-71
2021/07/31 12:46:05;;;;;;;;;;;;;;;;;;2125785;59;14153;-70
2021/07/31 12:48:32;;;;;;;;;;;;;;;;;;2125584;59;15031;-71
2021/07/31 12:50:59;;;;;;;;;;;;;;;;;;2125920;59;14746;-70
2021/07/31 12:53:27;;;;;;;;;;;;;;;;;;2127422;67;19264;-72
2021/07/31 12:55:54;;;;;;;;;;;;;;;;;;2125583;59;15517;-72
2021/07/31 12:58:22;;;;;;;;;;;;;;;;;;2126511;67;14265;-72
2021/07/31 13:00:49;;;;;;;;;;;;;;;;;;2126217;59;16238;-70
2021/07/31 13:03:17;;;;;;;;;;;;;;;;;;2124239;59;16781;-71
2021/07/31 13:05:44;;;;;;;;;;;;;;;;;;2124821;67;17776;-72
2021/07/31 13:08:11;;;;;;;;;;;;;;;;;;2123445;59;15363;-71
2021/07/31 13:10:40;;;;;;;;;;;;;;;;;;2127090;59;14140;-70
2021/07/31 13:13:07;;;;;;;;;;;;;;;;;;2125379;59;19713;-69
2021/07/31 13:15:36;;;;;;;;;;;;;;;;;;2125818;59;20146;-70
2021/07/31 13:18:02;;;;;;;;;;;;;;;;;;2123919;59;15087;-69
2021/07/31 13:20:29;;;;;;;;;;;;;;;;;;2125000;59;18021;-69
2021/07/31 13:22:55;;;;;;;;;;;;;;;;;;2124997;67;14537;-72
2021/07/31 13:25:22;;;;;;;;;;;;;;;;;;2125853;67;14210;-69
2021/07/31 13:27:48;;;;;;;;;;;;;;;;;;2123784;59;19220;-71
2021/07/31 13:30:15;;;;;;;;;;;;;;;;;;2126088;59;16400;-70
2021/07/31 13:32:43;;;;;;;;;;;;;;;;;;2124733;59;19810;-71
2021/07/31 13:35:09;;;;;;;;;;;;;;;;;;2125394;59;16087;-70
2021/07/31 13:37:39;;;;;;;;;;;;;;;;;;2123618;59;14803;-70
2021/07/31 13:40:16;;;;;;;;;;;;;;;;;;2125603;59;15162;-71
2021/07/31 13:42:43;;;;;;;;;;;;;;;;;;2125331;59;18356;-70
2021/07/31 13:45:10;;;;;;;;;;;;;;;;;;2125772;64;13481;-69
2021/07/31 13:47:37;;;;;;;;;;;;;;;;;;2125460;59;17738;-71
2021/07/31 13:50:06;;;;;;;;;;;;;;;;;;2126863;59;17160;-71
2021/07/31 13:52:32;;;;;;;;;;;;;;;;;;2125813;63;14691;-72
2021/07/31 13:54:59;;;;;;;;;;;;;;;;;;2126608;59;16727;-70
2021/07/31 13:57:25;;;;;;;;;;;;;;;;;;2126446;59;15014;-71
2021/07/31 13:59:52;;;;;;;;;;;;;;;;;;2126290;59;17731;-70
2021/07/31 14:02:19;;;;;;;;;;;;;;;;;;2126772;59;14584;-72
2021/07/31 14:04:46;;;;;;;;;;;;;;;;;;2126069;67;14614;-72
2021/07/31 14:07:14;;;;;;;;;;;;;;;;;;2126247;59;14424;-70
2021/07/31 14:09:40;;;;;;;;;;;;;;;;;;2126299;67;16200;-72
2021/07/31 14:12:07;;;;;;;;;;;;;;;;;;2126984;67;15433;-70
2021/07/31 14:14:34;;;;;;;;;;;;;;;;;;2126026;59;16255;-70
2021/07/31 14:17:00;;;;;;;;;;;;;;;;;;2125074;59;14672;-71
2021/07/31 14:19:27;;;;;;;;;;;;;;;;;;2124988;59;13985;-70
2021/07/31 14:21:53;;;;;;;;;;;;;;;;;;2124989;59;16669;-70
2021/07/31 14:24:21;;;;;;;;;;;;;;;;;;2125118;59;16836;-70
2021/07/31 14:26:47;;;;;;;;;;;;;;;;;;2125489;67;14211;-70
2021/07/31 14:29:14;;;;;;;;;;;;;;;;;;2126247;64;17603;-69
2021/07/31 14:31:40;;;;;;;;;;;;;;;;;;2125990;67;17061;-71
2021/07/31 14:34:07;;;;;;;;;;;;;;;;;;2126460;62;15056;-72
2021/07/31 14:36:33;;;;;;;;;;;;;;;;;;2127091;67;16520;-71
2021/07/31 14:39:00;;;;;;;;;;;;;;;;;;2126244;67;15855;-71
2021/07/31 14:41:28;;;;;;;;;;;;;;;;;;2126441;59;17602;-70
2021/07/31 14:43:56;;;;;;;;;;;;;;;;;;2125564;59;15022;-71
2021/07/31 14:46:23;;;;;;;;;;;;;;;;;;2126327;59;14471;-70
2021/07/31 14:48:49;;;;;;;;;;;;;;;;;;2126482;67;13928;-71
2021/07/31 14:51:17;;;;;;;;;;;;;;;;;;2126646;59;15235;-69
2021/07/31 14:53:43;;;;;;;;;;;;;;;;;;2126671;59;17468;-70
2021/07/31 14:56:15;;;;;;;;;;;;;;;;;;2127258;64;18946;-69
2021/07/31 14:58:43;;;;;;;;;;;;;;;;;;2126947;67;32015;-71
2021/07/31 15:01:11;;;;;;;;;;;;;;;;;;2127733;59;15157;-71
2021/07/31 15:03:37;;;;;;;;;;;;;;;;;;2125911;59;16782;-70
2021/07/31 15:06:04;;;;;;;;;;;;;;;;;;2126160;59;15444;-71
2021/07/31 15:08:30;;;;;;;;;;;;;;;;;;2125922;67;16616;-71
2021/07/31 15:10:57;;;;;;;;;;;;;;;;;;2127172;67;14417;-70
2021/07/31 15:13:23;;;;;;;;;;;;;;;;;;2127037;59;14712;-71
2021/07/31 15:15:52;;;;;;;;;;;;;;;;;;2126254;59;17843;-70
2021/07/31 15:18:18;;;;;;;;;;;;;;;;;;2126594;67;16176;-71
2021/07/31 15:20:44;;;;;;;;;;;;;;;;;;2126938;67;14649;-71
2021/07/31 15:23:11;;;;;;;;;;;;;;;;;;2126656;67;14733;-71
2021/07/31 15:25:38;;;;;;;;;;;;;;;;;;2124192;59;18240;-70
2021/07/31 15:28:05;;;;;;;;;;;;;;;;;;2126113;59;16985;-70
2021/07/31 15:30:31;;;;;;;;;;;;;;;;;;2126465;67;27397;-69
2021/07/31 15:32:59;;;;;;;;;;;;;;;;;;2126822;67;17222;-71
2021/07/31 15:35:26;;;;;;;;;;;;;;;;;;2125609;67;14110;-71
2021/07/31 15:37:53;;;;;;;;;;;;;;;;;;2126261;59;19618;-70
2021/07/31 15:40:19;;;;;;;;;;;;;;;;;;2127434;59;19617;-71
2021/07/31 15:42:46;;;;;;;;;;;;;;;;;;2127429;59;15617;-70
2021/07/31 15:45:13;;;;;;;;;;;;;;;;;;2126494;59;17364;-70
2021/07/31 15:47:39;;;;;;;;;;;;;;;;;;2125186;67;14864;-71
2021/07/31 15:50:09;;;;;;;;;;;;;;;;;;2127386;59;14961;-71
2021/07/31 15:52:36;;;;;;;;;;;;;;;;;;2126939;67;16099;-71
2021/07/31 15:55:02;;;;;;;;;;;;;;;;;;2126697;67;21078;-70
2021/07/31 15:57:29;;;;;;;;;;;;;;;;;;2127026;67;14447;-69
2021/07/31 15:59:55;;;;;;;;;;;;;;;;;;2125888;59;15656;-70
2021/07/31 16:02:22;;;;;;;;;;;;;;;;;;2127542;59;19608;-71
2021/07/31 16:04:48;;;;;;;;;;;;;;;;;;2126325;59;16145;-71
2021/07/31 16:07:16;;;;;;;;;;;;;;;;;;2126195;59;13595;-69
2021/07/31 16:09:43;;;;;;;;;;;;;;;;;;2125345;67;19683;-71
2021/07/31 16:12:10;;;;;;;;;;;;;;;;;;2127095;59;15592;-70
2021/07/31 16:14:36;;;;;;;;;;;;;;;;;;2127185;67;16319;-71
2021/07/31 16:17:03;;;;;;;;;;;;;;;;;;2126607;59;13716;-70
2021/07/31 16:19:29;;;;;;;;;;;;;;;;;;2126455;67;14607;-71
2021/07/31 16:21:56;;;;;;;;;;;;;;;;;;2126142;64;14363;-69
2021/07/31 16:24:24;;;;;;;;;;;;;;;;;;2126199;59;15780;-69
2021/07/31 16:26:50;;;;;;;;;;;;;;;;;;2126973;59;16618;-71
2021/07/31 16:29:17;;;;;;;;;;;;;;;;;;2125774;67;19116;-71
2021/07/31 16:31:43;;;;;;;;;;;;;;;;;;2125218;59;16237;-70
2021/07/31 16:34:10;;;;;;;;;;;;;;;;;;2126835;59;57455;-71
2021/07/31 16:36:38;;;;;;;;;;;;;;;;;;2126922;59;18716;-69
2021/07/31 16:39:04;;;;;;;;;;;;;;;;;;2126699;67;37883;-70
2021/07/31 16:41:32;;;;;;;;;;;;;;;;;;2127108;59;17007;-70
2021/07/31 16:43:59;;;;;;;;;;;;;;;;;;2125216;64;15099;-69
2021/07/31 16:46:26;;;;;;;;;;;;;;;;;;2126889;59;15350;-70
2021/07/31 16:48:52;;;;;;;;;;;;;;;;;;2126769;64;14815;-70